createdAt,value
2023-02-26T00:01:30.064Z,2.72
2023-02-26T00:04:01.416Z,1.90
2023-02-26T00:06:29.357Z,1.98
2023-02-26T00:08:56.689Z,2.10
2023-02-26T00:11:23.792Z,2.10
2023-02-26T00:13:51.048Z,1.83
2023-02-26T00:16:29.619Z,2.00
2023-02-26T00:18:58.122Z,2.50
2023-02-26T00:21:25.922Z,1.90
2023-02-26T00:23:53.390Z,1.67
2023-02-26T00:26:21.691Z,1.92
2023-02-26T00:28:48.927Z,1.80
2023-02-26T00:31:16.614Z,1.85
2023-02-26T00:33:44.650Z,1.80
2023-02-26T00:36:20.244Z,1.90
2023-02-26T00:39:12.089Z,1.60
2023-02-26T00:41:39.303Z,1.85
2023-02-26T00:44:06.429Z,1.40
2023-02-26T00:46:37.049Z,1.40
2023-02-26T00:49:37.569Z,1.17
2023-02-26T00:52:08.303Z,1.40
2023-02-26T00:54:35.369Z,1.25
2023-02-26T00:57:04.302Z,1.25
2023-02-26T00:59:31.149Z,1.30
2023-02-26T01:01:57.871Z,1.20
2023-02-26T01:04:25.393Z,1.40
2023-02-26T01:06:55.527Z,1.13
2023-02-26T01:09:26.777Z,1.48
2023-02-26T01:11:55.365Z,1.42
2023-02-26T01:14:23.086Z,1.48
2023-02-26T01:17:02.561Z,1.45
2023-02-26T01:19:36.474Z,1.67
2023-02-26T01:22:36.995Z,1.65
2023-02-26T01:25:09.921Z,1.50
2023-02-26T01:27:36.964Z,1.42
2023-02-26T01:30:06.222Z,1.75
2023-02-26T01:32:44.485Z,1.48
2023-02-26T01:35:40.607Z,1.42
2023-02-26T01:38:35.227Z,1.27
2023-02-26T01:41:28.755Z,1.30
2023-02-26T01:44:02.674Z,1.58
2023-02-26T01:46:51.122Z,2.10
2023-02-26T01:49:19.693Z,1.67
2023-02-26T01:51:52.434Z,1.65
2023-02-26T01:54:44.113Z,1.40
2023-02-26T01:57:19.198Z,1.50
2023-02-26T01:59:48.975Z,1.30
2023-02-26T02:02:19.588Z,1.77
2023-02-26T02:04:47.924Z,1.48
2023-02-26T02:07:15.491Z,1.40
2023-02-26T02:09:42.835Z,1.73
2023-02-26T02:12:43.093Z,1.40
2023-02-26T02:15:12.973Z,1.42
2023-02-26T02:18:20.579Z,1.70
2023-02-26T02:21:09.359Z,1.40
2023-02-26T02:23:41.865Z,1.65
2023-02-26T02:26:35.677Z,1.45
2023-02-26T02:29:14.236Z,1.52
2023-02-26T02:31:44.018Z,1.50
2023-02-26T02:34:36.773Z,1.58
2023-02-26T02:37:17.379Z,1.45
2023-02-26T02:39:56.554Z,1.40
2023-02-26T02:42:26.752Z,1.48
2023-02-26T02:44:59.144Z,1.30
2023-02-26T02:47:29.200Z,1.70
2023-02-26T02:50:22.110Z,1.60
2023-02-26T02:53:00.724Z,1.70
2023-02-26T02:55:33.841Z,1.30
2023-02-26T02:58:07.756Z,1.70
2023-02-26T03:00:48.781Z,1.67
2023-02-26T03:03:26.596Z,1.40
2023-02-26T03:05:53.482Z,1.58
2023-02-26T03:08:26.389Z,1.60
2023-02-26T03:10:53.383Z,1.40
2023-02-26T03:13:23.111Z,1.92
2023-02-26T03:16:17.152Z,1.95
2023-02-26T03:18:52.739Z,1.30
2023-02-26T03:21:38.719Z,1.33
2023-02-26T03:24:14.932Z,1.38
2023-02-26T03:26:58.173Z,1.58
2023-02-26T03:29:43.204Z,1.55
2023-02-26T03:32:21.283Z,1.52
2023-02-26T03:34:54.864Z,1.10
2023-02-26T03:37:27.415Z,1.40
2023-02-26T03:39:59.006Z,1.30
2023-02-26T03:42:49.387Z,1.48
2023-02-26T03:45:20.440Z,1.40
2023-02-26T03:47:53.605Z,1.23
2023-02-26T03:50:38.300Z,1.38
2023-02-26T03:53:09.608Z,1.70
2023-02-26T03:55:49.372Z,1.40
2023-02-26T03:58:17.012Z,1.48
2023-02-26T04:00:47.818Z,1.58
2023-02-26T04:03:32.836Z,1.20
2023-02-26T04:06:00.552Z,1.38
2023-02-26T04:08:29.677Z,1.40
2023-02-26T04:11:20.668Z,1.40
2023-02-26T04:13:47.879Z,2.00
2023-02-26T04:16:15.466Z,1.30
2023-02-26T04:18:42.639Z,1.63
2023-02-26T04:21:18.832Z,1.73
2023-02-26T04:23:45.553Z,1.42
2023-02-26T04:26:13.250Z,1.38
2023-02-26T04:28:40.794Z,1.60
2023-02-26T04:31:09.333Z,1.45
2023-02-26T04:33:36.926Z,1.45
2023-02-26T04:36:04.820Z,1.60
2023-02-26T04:38:31.647Z,1.42
2023-02-26T04:40:58.365Z,1.23
2023-02-26T04:43:25.109Z,1.52
2023-02-26T04:45:51.915Z,1.20
2023-02-26T04:48:18.937Z,1.83
2023-02-26T04:50:47.093Z,1.20
2023-02-26T04:53:14.127Z,1.55
2023-02-26T04:55:43.561Z,1.38
2023-02-26T04:58:11.451Z,1.42
2023-02-26T05:00:38.189Z,1.13
2023-02-26T05:03:04.913Z,1.30
2023-02-26T05:05:31.719Z,1.50
2023-02-26T05:07:58.638Z,1.30
2023-02-26T05:10:25.683Z,1.50
2023-02-26T05:12:52.491Z,1.70
2023-02-26T05:15:19.410Z,1.30
2023-02-26T05:17:46.287Z,1.27
2023-02-26T05:20:13.326Z,1.40
2023-02-26T05:22:40.063Z,1.40
2023-02-26T05:25:07.982Z,1.45
2023-02-26T05:27:34.775Z,2.10
2023-02-26T05:30:01.659Z,1.30
2023-02-26T05:32:29.352Z,1.58
2023-02-26T05:34:56.072Z,1.40
2023-02-26T05:37:22.818Z,1.65
2023-02-26T05:39:49.514Z,1.52
2023-02-26T05:42:16.452Z,1.40
2023-02-26T05:44:43.218Z,1.20
2023-02-26T05:47:09.971Z,1.92
2023-02-26T05:49:37.151Z,1.52
2023-02-26T05:52:04.483Z,1.30
2023-02-26T05:54:31.239Z,1.60
2023-02-26T05:56:57.982Z,1.50
2023-02-26T05:59:24.854Z,1.50
2023-02-26T06:01:51.640Z,1.55
2023-02-26T06:04:18.373Z,1.38
2023-02-26T06:06:45.069Z,1.30
2023-02-26T06:09:11.944Z,1.35
2023-02-26T06:11:40.407Z,1.58
2023-02-26T06:14:07.204Z,1.55
2023-02-26T06:16:35.817Z,1.27
2023-02-26T06:19:03.049Z,1.38
2023-02-26T06:21:30.244Z,1.70
2023-02-26T06:23:56.950Z,1.70
2023-02-26T06:26:24.088Z,2.25
2023-02-26T06:28:50.944Z,2.15
2023-02-26T06:31:17.760Z,1.35
2023-02-26T06:33:44.814Z,1.10
2023-02-26T06:36:12.078Z,1.45
2023-02-26T06:38:38.906Z,1.30
2023-02-26T06:41:05.659Z,1.20
2023-02-26T06:43:32.427Z,1.08
2023-02-26T06:46:00.255Z,1.35
2023-02-26T06:48:27.948Z,1.40
2023-02-26T06:50:54.700Z,1.00
2023-02-26T06:53:21.869Z,1.40
2023-02-26T06:55:51.929Z,1.20
2023-02-26T06:58:19.686Z,1.20
2023-02-26T07:00:46.715Z,1.30
2023-02-26T07:03:15.584Z,1.30
2023-02-26T07:05:42.291Z,1.48
2023-02-26T07:08:09.093Z,1.52
2023-02-26T07:10:37.181Z,1.40
2023-02-26T07:13:04.312Z,1.38
2023-02-26T07:15:31.592Z,1.40
2023-02-26T07:18:00.087Z,1.40
2023-02-26T07:20:27.741Z,1.65
2023-02-26T07:22:54.450Z,1.30
2023-02-26T07:25:21.534Z,1.38
2023-02-26T07:27:48.280Z,1.73
2023-02-26T07:30:15.955Z,1.75
2023-02-26T07:32:43.134Z,1.27
2023-02-26T07:35:10.565Z,1.95
2023-02-26T07:37:37.619Z,1.40
2023-02-26T07:40:04.996Z,1.40
2023-02-26T07:42:31.742Z,1.83
2023-02-26T07:44:59.207Z,1.55
2023-02-26T07:47:26.927Z,1.40
2023-02-26T07:49:53.691Z,2.75
2023-02-26T07:52:20.399Z,1.50
2023-02-26T07:54:47.122Z,1.20
2023-02-26T07:57:13.877Z,1.30
2023-02-26T07:59:40.566Z,1.27
2023-02-26T08:02:10.330Z,1.35
2023-02-26T08:04:37.096Z,1.20
2023-02-26T08:07:03.908Z,1.30
2023-02-26T08:09:30.735Z,1.75
2023-02-26T08:11:57.746Z,1.10
2023-02-26T08:14:24.424Z,1.23
2023-02-26T08:16:53.067Z,1.20
2023-02-26T08:19:19.857Z,1.10
2023-02-26T08:21:46.598Z,1.10
2023-02-26T08:24:13.605Z,1.05
2023-02-26T08:26:40.752Z,1.10
2023-02-26T08:29:07.890Z,1.00
2023-02-26T08:31:35.509Z,0.70
2023-02-26T08:34:02.362Z,0.90
2023-02-26T08:36:29.092Z,1.00
2023-02-26T08:38:55.852Z,0.90
2023-02-26T08:41:23.365Z,1.08
2023-02-26T08:43:50.333Z,0.82
2023-02-26T08:46:17.101Z,0.93
2023-02-26T08:48:43.833Z,0.90
2023-02-26T08:51:10.557Z,1.50
2023-02-26T08:53:37.376Z,0.95
2023-02-26T08:56:04.476Z,1.20
2023-02-26T08:58:32.191Z,0.80
2023-02-26T09:00:59.049Z,0.90
2023-02-26T09:03:25.978Z,1.05
2023-02-26T09:05:52.709Z,1.50
2023-02-26T09:08:20.592Z,1.17
2023-02-26T09:10:47.858Z,1.20
2023-02-26T09:13:14.754Z,1.27
2023-02-26T09:15:41.867Z,0.90
2023-02-26T09:18:15.305Z,1.00
2023-02-26T09:20:43.262Z,1.15
2023-02-26T09:23:10.138Z,1.00
2023-02-26T09:25:37.174Z,0.93
2023-02-26T09:28:04.748Z,0.85
2023-02-26T09:30:32.167Z,0.80
2023-02-26T09:32:59.245Z,0.90
2023-02-26T09:35:26.197Z,1.13
2023-02-26T09:37:52.972Z,0.90
2023-02-26T09:40:32.499Z,0.93
2023-02-26T09:43:36.977Z,0.90
2023-02-26T09:46:15.680Z,0.90
2023-02-26T09:48:44.737Z,1.00
2023-02-26T09:51:18.455Z,1.05
2023-02-26T09:53:45.983Z,0.70
2023-02-26T09:56:22.798Z,0.73
2023-02-26T09:58:50.432Z,0.65
2023-02-26T10:01:23.033Z,1.13
2023-02-26T10:04:02.231Z,0.50
2023-02-26T10:07:17.778Z,0.88
2023-02-26T10:10:03.028Z,0.77
2023-02-26T10:12:34.959Z,0.80
2023-02-26T10:15:19.890Z,0.80
2023-02-26T10:18:08.315Z,0.77
2023-02-26T10:21:30.397Z,0.68
2023-02-26T10:24:14.023Z,0.70
2023-02-26T10:26:46.804Z,0.70
2023-02-26T10:29:37.749Z,0.50
2023-02-26T10:32:15.576Z,0.68
2023-02-26T10:34:57.426Z,0.85
2023-02-26T10:37:31.546Z,0.57
2023-02-26T10:40:18.682Z,0.82
2023-02-26T10:42:50.724Z,0.70
2023-02-26T10:45:41.826Z,0.85
2023-02-26T10:48:17.727Z,0.70
2023-02-26T10:50:57.235Z,1.00
2023-02-26T10:53:26.499Z,0.88
2023-02-26T10:56:02.932Z,1.17
2023-02-26T10:58:29.946Z,0.80
2023-02-26T11:00:57.146Z,0.60
2023-02-26T11:03:35.022Z,0.80
2023-02-26T11:06:03.894Z,1.00
2023-02-26T11:08:52.238Z,0.70
2023-02-26T11:11:40.348Z,0.70
2023-02-26T11:14:08.496Z,0.70
2023-02-26T11:16:41.465Z,0.70
2023-02-26T11:19:09.239Z,1.25
2023-02-26T11:21:41.564Z,0.80
2023-02-26T11:24:19.411Z,0.50
2023-02-26T11:26:48.989Z,0.70
2023-02-26T11:29:20.490Z,0.60
2023-02-26T11:31:58.239Z,0.90
2023-02-26T11:34:26.615Z,0.73
2023-02-26T11:36:59.931Z,0.73
2023-02-26T11:39:36.182Z,0.88
2023-02-26T11:42:04.737Z,0.75
2023-02-26T11:44:45.978Z,1.00
2023-02-26T11:47:19.444Z,1.10
2023-02-26T11:49:54.427Z,1.02
2023-02-26T11:52:34.798Z,0.90
2023-02-26T11:55:04.649Z,0.90
2023-02-26T11:57:33.416Z,0.82
2023-02-26T12:00:01.791Z,0.82
2023-02-26T12:02:37.156Z,1.00
2023-02-26T12:05:07.012Z,1.00
2023-02-26T12:07:33.822Z,0.90
2023-02-26T12:10:00.567Z,0.70
2023-02-26T12:13:03.368Z,0.80
2023-02-26T12:15:40.721Z,0.77
2023-02-26T12:18:23.222Z,0.88
2023-02-26T12:20:56.299Z,1.00
2023-02-26T12:24:01.706Z,0.70
2023-02-26T12:26:37.107Z,1.00
2023-02-26T12:29:38.220Z,0.75
2023-02-26T12:32:27.347Z,0.77
2023-02-26T12:35:15.300Z,0.80
2023-02-26T12:38:10.965Z,0.82
2023-02-26T12:40:47.595Z,0.40
2023-02-26T12:43:23.541Z,0.88
2023-02-26T12:46:14.346Z,0.65
2023-02-26T12:49:02.779Z,1.23
2023-02-26T12:51:49.225Z,0.80
2023-02-26T12:54:24.943Z,1.27
2023-02-26T12:57:05.899Z,0.88
2023-02-26T12:59:53.830Z,1.00
2023-02-26T13:02:36.990Z,0.98
2023-02-26T13:05:11.051Z,0.95
2023-02-26T13:07:57.549Z,0.77
2023-02-26T13:10:48.932Z,1.05
2023-02-26T13:13:30.731Z,1.10
2023-02-26T13:18:41.190Z,1.10
2023-02-26T13:21:18.143Z,1.05
2023-02-26T13:24:06.778Z,0.95
2023-02-26T13:26:34.830Z,0.90
2023-02-26T13:29:14.684Z,0.95
2023-02-26T13:31:47.646Z,1.40
2023-02-26T13:34:36.799Z,0.98
2023-02-26T13:37:05.433Z,1.25
2023-02-26T13:40:09.447Z,1.20
2023-02-26T13:42:42.005Z,1.20
2023-02-26T13:45:23.640Z,1.10
2023-02-26T13:48:11.030Z,0.93
2023-02-26T13:50:47.288Z,1.00
2023-02-26T13:53:33.690Z,1.10
2023-02-26T13:56:22.167Z,0.90
2023-02-26T13:59:03.768Z,1.20
2023-02-26T14:01:50.261Z,1.02
2023-02-26T14:04:20.204Z,1.42
2023-02-26T14:06:49.214Z,1.10
2023-02-26T14:09:21.973Z,1.35
2023-02-26T14:11:54.760Z,0.95
2023-02-26T14:14:21.528Z,0.93
2023-02-26T14:17:09.471Z,1.27
2023-02-26T14:19:43.678Z,0.90
2023-02-26T14:22:23.814Z,1.10
2023-02-26T14:25:12.933Z,1.00
2023-02-26T14:27:46.455Z,0.88
2023-02-26T14:30:29.006Z,1.35
2023-02-26T14:32:58.870Z,0.82
2023-02-26T14:35:32.029Z,1.00
2023-02-26T14:38:09.162Z,0.75
2023-02-26T14:40:42.680Z,1.00
2023-02-26T14:43:22.152Z,0.90
2023-02-26T14:45:50.793Z,1.05
2023-02-26T14:48:20.512Z,1.13
2023-02-26T14:51:03.294Z,0.70
2023-02-26T14:53:58.644Z,1.02
2023-02-26T14:56:43.420Z,0.95
2023-02-26T14:59:27.131Z,1.00
2023-02-26T15:02:12.143Z,0.93
2023-02-26T15:05:05.183Z,0.90
2023-02-26T15:07:46.759Z,0.70
2023-02-26T15:10:18.362Z,1.00
2023-02-26T15:15:58.570Z,0.75
2023-02-26T15:18:50.789Z,0.95
2023-02-26T15:21:20.482Z,1.00
2023-02-26T15:23:49.335Z,1.42
2023-02-26T15:26:27.745Z,0.75
2023-02-26T15:28:55.362Z,0.90
2023-02-26T15:31:31.875Z,0.80
2023-02-26T15:33:58.665Z,0.63
2023-02-26T15:36:27.294Z,0.80
2023-02-26T15:38:57.244Z,0.90
2023-02-26T15:41:26.422Z,0.80
2023-02-26T15:44:10.767Z,0.70
2023-02-26T15:46:43.855Z,0.75
2023-02-26T15:49:17.927Z,0.90
2023-02-26T15:51:45.581Z,0.80
2023-02-26T15:54:20.478Z,0.93
2023-02-26T15:56:48.485Z,1.23
2023-02-26T15:59:20.005Z,1.00
2023-02-26T16:01:49.199Z,1.08
2023-02-26T16:04:20.313Z,1.00
2023-02-26T16:06:49.750Z,0.88
2023-02-26T16:09:27.813Z,0.93
2023-02-26T16:11:57.587Z,0.85
2023-02-26T16:14:29.442Z,0.68
2023-02-26T16:16:57.421Z,0.90
2023-02-26T16:19:50.714Z,1.17
2023-02-26T16:22:37.444Z,1.05
2023-02-26T16:25:18.018Z,1.05
2023-02-26T16:27:49.624Z,0.90
2023-02-26T16:30:20.208Z,0.90
2023-02-26T16:32:47.476Z,0.90
2023-02-26T16:35:22.790Z,0.75
2023-02-26T16:37:53.634Z,0.75
2023-02-26T16:40:25.800Z,1.05
2023-02-26T16:43:06.140Z,0.70
2023-02-26T16:45:38.966Z,1.15
2023-02-26T16:48:22.933Z,1.00
2023-02-26T16:51:00.137Z,0.80
2023-02-26T16:53:35.522Z,1.20
2023-02-26T16:56:04.194Z,0.90
2023-02-26T16:58:32.303Z,0.80
2023-02-26T17:01:18.975Z,0.85
2023-02-26T17:03:51.444Z,1.13
2023-02-26T17:06:19.692Z,0.82
2023-02-26T17:09:10.311Z,1.08
2023-02-26T17:11:44.365Z,1.00
2023-02-26T17:14:22.375Z,1.50
2023-02-26T17:16:50.744Z,1.30
2023-02-26T17:19:18.284Z,1.10
2023-02-26T17:21:50.544Z,1.25
2023-02-26T17:24:33.708Z,1.20
2023-02-26T17:27:02.280Z,1.20
2023-02-26T17:29:36.298Z,1.05
2023-02-26T17:32:10.567Z,1.00
2023-02-26T17:34:37.366Z,1.48
2023-02-26T17:37:07.648Z,1.38
2023-02-26T17:39:34.455Z,1.33
2023-02-26T17:42:01.165Z,1.10
2023-02-26T17:44:29.313Z,1.20
2023-02-26T17:46:56.048Z,1.20
2023-02-26T17:49:22.813Z,1.48
2023-02-26T17:51:53.900Z,1.55
2023-02-26T17:54:20.719Z,1.42
2023-02-26T17:56:49.609Z,1.35
2023-02-26T17:59:16.352Z,1.50
2023-02-26T18:01:43.231Z,1.23
2023-02-26T18:04:10.273Z,1.30
2023-02-26T18:06:38.068Z,1.48
2023-02-26T18:09:06.070Z,1.38
2023-02-26T18:11:33.422Z,1.30
2023-02-26T18:14:01.209Z,1.30
2023-02-26T18:16:42.538Z,1.40
2023-02-26T18:19:12.656Z,1.20
2023-02-26T18:21:39.381Z,1.50
2023-02-26T18:24:06.572Z,1.48
2023-02-26T18:26:33.778Z,1.98
2023-02-26T18:29:00.707Z,1.92
2023-02-26T18:31:34.369Z,1.95
2023-02-26T18:34:02.478Z,1.70
2023-02-26T18:36:37.939Z,2.00
2023-02-26T18:39:07.449Z,2.17
2023-02-26T18:41:34.386Z,2.00
2023-02-26T18:44:01.151Z,2.10
2023-02-26T18:46:29.868Z,2.35
2023-02-26T18:48:56.736Z,2.30
2023-02-26T18:51:23.583Z,2.45
2023-02-26T18:53:50.370Z,2.25
2023-02-26T18:56:17.073Z,2.00
2023-02-26T18:58:43.838Z,1.92
2023-02-26T19:01:10.742Z,1.85
2023-02-26T19:03:37.524Z,3.92
2023-02-26T19:06:08.722Z,2.60
2023-02-26T19:08:35.499Z,3.20
2023-02-26T19:11:02.271Z,2.30
2023-02-26T19:13:29.113Z,1.80
2023-02-26T19:15:55.884Z,2.10
2023-02-26T19:18:22.801Z,1.90
2023-02-26T19:20:49.574Z,2.40
2023-02-26T19:23:16.421Z,2.10
2023-02-26T19:25:43.224Z,1.88
2023-02-26T19:28:10.120Z,1.80
2023-02-26T19:30:38.468Z,1.58
2023-02-26T19:33:06.261Z,2.42
2023-02-26T19:35:33.723Z,1.80
2023-02-26T19:38:00.450Z,1.70
2023-02-26T19:40:28.278Z,2.00
2023-02-26T19:42:55.246Z,1.98
2023-02-26T19:45:22.098Z,2.33
2023-02-26T19:47:48.829Z,2.00
2023-02-26T19:50:16.824Z,2.05
2023-02-26T19:52:44.336Z,2.35
2023-02-26T19:55:11.505Z,2.30
2023-02-26T19:57:38.276Z,1.95
2023-02-26T20:00:06.076Z,1.90
2023-02-26T20:02:33.073Z,1.42
2023-02-26T20:04:59.883Z,1.70
2023-02-26T20:07:26.985Z,1.85
2023-02-26T20:09:53.711Z,2.00
2023-02-26T20:12:21.174Z,1.90
2023-02-26T20:14:48.426Z,2.15
2023-02-26T20:17:15.313Z,1.80
2023-02-26T20:19:42.133Z,1.80
2023-02-26T20:22:08.922Z,2.40
2023-02-26T20:24:36.348Z,3.67
2023-02-26T20:27:03.089Z,2.75
2023-02-26T20:29:29.878Z,2.60
2023-02-26T20:31:59.217Z,3.75
2023-02-26T20:34:26.187Z,3.55
2023-02-26T20:36:55.569Z,2.40
2023-02-26T20:39:22.869Z,2.70
2023-02-26T20:41:50.683Z,2.00
2023-02-26T20:44:17.878Z,2.40
2023-02-26T20:46:44.885Z,3.05
2023-02-26T20:49:11.828Z,3.03
2023-02-26T20:51:42.473Z,2.50
2023-02-26T20:54:12.791Z,2.28
2023-02-26T20:56:39.550Z,2.72
2023-02-26T20:59:07.628Z,2.50
2023-02-26T21:01:37.078Z,2.80
2023-02-26T21:04:06.156Z,2.78
2023-02-26T21:06:33.846Z,3.00
2023-02-26T21:09:01.530Z,2.30
2023-02-26T21:11:36.813Z,2.42
2023-02-26T21:14:04.885Z,2.60
2023-02-26T21:16:31.863Z,2.75
2023-02-26T21:19:00.366Z,2.95
2023-02-26T21:21:27.472Z,2.95
2023-02-26T21:23:55.401Z,3.10
2023-02-26T21:26:23.262Z,3.17
2023-02-26T21:28:50.374Z,2.90
2023-02-26T21:31:19.383Z,2.78
2023-02-26T21:33:46.301Z,2.78
2023-02-26T21:36:14.119Z,3.30
2023-02-26T21:38:41.998Z,3.03
2023-02-26T21:41:08.732Z,2.88
2023-02-26T21:43:35.812Z,2.97
2023-02-26T21:46:03.144Z,2.85
2023-02-26T21:48:29.888Z,2.70
2023-02-26T21:50:57.674Z,3.13
2023-02-26T21:53:24.478Z,2.67
2023-02-26T21:55:51.340Z,2.58
2023-02-26T21:58:18.113Z,2.65
2023-02-26T22:00:44.875Z,2.60
2023-02-26T22:03:11.871Z,2.22
2023-02-26T22:05:38.636Z,2.47
2023-02-26T22:08:05.490Z,2.80
2023-02-26T22:10:32.301Z,2.65
2023-02-26T22:12:58.981Z,2.90
2023-02-26T22:15:25.708Z,2.58
2023-02-26T22:17:52.431Z,2.75
2023-02-26T22:20:19.239Z,2.40
2023-02-26T22:22:46.107Z,2.72
2023-02-26T22:25:13.223Z,2.45
2023-02-26T22:27:40.048Z,2.72
2023-02-26T22:30:08.012Z,3.15
2023-02-26T22:32:35.007Z,2.97
2023-02-26T22:35:01.929Z,2.28
2023-02-26T22:37:28.879Z,2.50
2023-02-26T22:39:55.693Z,2.55
2023-02-26T22:42:22.904Z,2.80
2023-02-26T22:44:49.663Z,2.70
2023-02-26T22:47:16.458Z,2.78
2023-02-26T22:49:43.280Z,2.58
2023-02-26T22:52:10.754Z,2.50
2023-02-26T22:54:38.890Z,2.58
2023-02-26T22:57:06.200Z,2.50
2023-02-26T22:59:33.265Z,2.20
2023-02-26T23:01:59.994Z,2.38
2023-02-26T23:04:27.098Z,2.53
2023-02-26T23:06:53.901Z,1.80
2023-02-26T23:09:21.284Z,2.30
2023-02-26T23:11:48.112Z,2.55
2023-02-26T23:14:14.873Z,2.80
2023-02-26T23:16:41.920Z,2.38
2023-02-26T23:19:08.910Z,2.17
2023-02-26T23:21:35.962Z,2.00
2023-02-26T23:24:02.729Z,2.13
2023-02-26T23:26:29.687Z,1.95
2023-02-26T23:28:56.430Z,1.80
2023-02-26T23:31:23.260Z,1.92
2023-02-26T23:33:50.345Z,2.30
2023-02-26T23:36:17.428Z,1.90
2023-02-26T23:38:44.203Z,2.00
2023-02-26T23:41:10.948Z,2.47
2023-02-26T23:43:37.760Z,1.83
2023-02-26T23:46:04.823Z,1.90
2023-02-26T23:48:31.579Z,1.92
2023-02-26T23:50:58.365Z,1.83
2023-02-26T23:53:25.075Z,1.60
2023-02-26T23:55:57.120Z,1.70
2023-02-26T23:58:25.567Z,2.35
